KCUB/CUB METAR and TAF weather

Enter ICAO airport designator
Station Type Date Time Source
KCUB METAR 2019/08/25 02:53 UTC NOAA

KCUB 250253Z AUTO 04008KT 10SM OVC010 22/19 A3012 RMK AO2 CIG 009V014 SLP197 T02170189 53015


Station Type Date Time Source
KCUB Decoded METAR 2019/08/25 02:53 UTC NOAA

Station name not available
Aug 24, 2019 - 10:53 PM EDT / 2019.08.25 0253 UTC
Wind: from the NE (040 degrees) at 9 MPH (8 KT):0
Visibility: 10 mile(s):0
Sky conditions: overcast
Temperature: 71.1 F (21.7 C)
Dew Point: 66.0 F (18.9 C)
Relative Humidity: 84%
Pressure (altimeter): 30.12 in. Hg (1019 hPa)
Pressure tendency: 0.04 inches (1.5 hPa) higher than three hours ago
ob: KCUB 250253Z AUTO 04008KT 10SM OVC010 22/19 A3012 RMK AO2 CIG 009V014 SLP197 T02170189 53015
cycle: 3

Station Type Date Time Source
KCUB TAF 2019/08/25 03:36 UTC NOAA

TAF
AMD KCUB 250235Z 2503/2524 05006KT P6SM OVC012
TEMPO 2503/2506 BKN009
FM250600 04006KT P6SM OVC007
FM251400 04008KT P6SM OVC025

Example: see airport list